createdAt,value
2018-09-19T00:00:18.080Z,1018.06
2018-09-19T00:01:18.249Z,1018.06
2018-09-19T00:02:17.862Z,1018.11
2018-09-19T00:03:18.271Z,1018.1
2018-09-19T00:04:17.984Z,1018.14
2018-09-19T00:05:18.066Z,1018.12
2018-09-19T00:06:18.275Z,1018.15
2018-09-19T00:07:18.192Z,1018.11
2018-09-19T00:08:18.126Z,1018.15
2018-09-19T00:09:17.880Z,1018.11
2018-09-19T00:10:17.966Z,1018.16
2018-09-19T00:11:18.059Z,1018.13
2018-09-19T00:12:18.108Z,1018.14
2018-09-19T00:13:18.082Z,1018.16
2018-09-19T00:14:18.362Z,1018.16
2018-09-19T00:15:18.077Z,1018.19
2018-09-19T00:16:18.231Z,1018.15
2018-09-19T00:17:18.247Z,1018.18
2018-09-19T00:18:18.360Z,1018.17
2018-09-19T00:19:18.508Z,1018.18
2018-09-19T00:20:18.450Z,1018.19
2018-09-19T00:21:18.004Z,1018.25
2018-09-19T00:22:18.095Z,1018.25
2018-09-19T00:23:18.122Z,1018.21
2018-09-19T00:24:18.169Z,1018.2
2018-09-19T00:25:18.053Z,1018.22
2018-09-19T00:26:18.209Z,1018.22
2018-09-19T00:27:18.091Z,1018.22
2018-09-19T00:28:18.123Z,1018.23
2018-09-19T00:29:17.967Z,1018.2
2018-09-19T00:30:18.115Z,1018.19
2018-09-19T00:31:18.203Z,1018.24
2018-09-19T00:32:18.179Z,1018.24
2018-09-19T00:33:18.368Z,1018.27
2018-09-19T00:34:18.294Z,1018.24
2018-09-19T00:35:17.993Z,1018.22
2018-09-19T00:36:18.094Z,1018.27
2018-09-19T00:37:17.900Z,1018.3
2018-09-19T00:38:18.255Z,1018.23
2018-09-19T00:39:18.049Z,1018.28
2018-09-19T00:40:18.104Z,1018.21
2018-09-19T00:41:18.432Z,1018.27
2018-09-19T00:42:18.072Z,1018.22
2018-09-19T00:43:18.264Z,1018.24
2018-09-19T00:44:17.838Z,1018.26
2018-09-19T00:45:17.940Z,1018.27
2018-09-19T00:46:18.165Z,1018.27
2018-09-19T00:47:18.115Z,1018.29
2018-09-19T00:48:17.979Z,1018.27
2018-09-19T00:49:17.962Z,1018.29
2018-09-19T00:50:18.009Z,1018.32
2018-09-19T00:51:18.072Z,1018.33
2018-09-19T00:52:17.895Z,1018.36
2018-09-19T00:53:17.989Z,1018.37
2018-09-19T00:54:18.078Z,1018.34
2018-09-19T00:55:18.136Z,1018.36
2018-09-19T00:56:18.075Z,1018.41
2018-09-19T00:57:17.932Z,1018.38
2018-09-19T00:58:17.921Z,1018.35
2018-09-19T00:59:18.061Z,1018.41
2018-09-19T01:00:18.019Z,1018.36
2018-09-19T01:01:18.146Z,1018.36
2018-09-19T01:02:17.808Z,1018.38
2018-09-19T01:03:17.940Z,1018.36
2018-09-19T01:04:18.111Z,1018.37
2018-09-19T01:05:18.041Z,1018.34
2018-09-19T01:06:17.879Z,1018.3
2018-09-19T01:07:18.090Z,1018.32
2018-09-19T01:08:18.010Z,1018.27
2018-09-19T01:09:18.059Z,1018.29
2018-09-19T01:10:17.960Z,1018.33
2018-09-19T01:11:18.330Z,1018.32
2018-09-19T01:12:18.042Z,1018.28
2018-09-19T01:13:17.850Z,1018.32
2018-09-19T01:14:18.243Z,1018.31
2018-09-19T01:15:17.932Z,1018.29
2018-09-19T01:16:17.908Z,1018.3
2018-09-19T01:17:18.063Z,1018.31
2018-09-19T01:18:18.013Z,1018.35
2018-09-19T01:19:17.972Z,1018.37
2018-09-19T01:20:17.860Z,1018.36
2018-09-19T01:21:18.331Z,1018.35
2018-09-19T01:22:17.959Z,1018.33
2018-09-19T01:23:18.354Z,1018.3
2018-09-19T01:24:17.966Z,1018.28
2018-09-19T01:25:18.221Z,1018.3
2018-09-19T01:26:18.359Z,1018.31
2018-09-19T01:27:18.033Z,1018.33
2018-09-19T01:28:18.257Z,1018.3
2018-09-19T01:29:17.921Z,1018.31
2018-09-19T01:30:18.021Z,1018.3
2018-09-19T01:31:18.100Z,1018.26
2018-09-19T01:32:17.962Z,1018.27
2018-09-19T01:33:18.158Z,1018.24
2018-09-19T01:34:18.091Z,1018.24
2018-09-19T01:35:17.999Z,1018.27
2018-09-19T01:36:18.017Z,1018.32
2018-09-19T01:37:18.079Z,1018.33
2018-09-19T01:38:18.028Z,1018.36
2018-09-19T01:39:18.137Z,1018.36
2018-09-19T01:40:18.048Z,1018.35
2018-09-19T01:41:17.993Z,1018.41
2018-09-19T01:42:17.959Z,1018.42
2018-09-19T01:43:18.115Z,1018.38
2018-09-19T01:44:17.877Z,1018.43
2018-09-19T01:45:18.046Z,1018.43
2018-09-19T01:46:18.269Z,1018.47
2018-09-19T01:47:18.393Z,1018.48
2018-09-19T01:48:18.099Z,1018.53
2018-09-19T01:49:17.949Z,1018.5
2018-09-19T01:50:17.900Z,1018.47
2018-09-19T01:51:18.385Z,1018.52
2018-09-19T01:52:18.310Z,1018.49
2018-09-19T01:53:18.012Z,1018.48
2018-09-19T01:54:18.065Z,1018.5
2018-09-19T01:55:18.024Z,1018.57
2018-09-19T01:56:18.277Z,1018.52
2018-09-19T01:57:18.248Z,1018.53
2018-09-19T01:58:17.938Z,1018.54
2018-09-19T01:59:17.940Z,1018.53
2018-09-19T02:00:18.090Z,1018.54
2018-09-19T02:01:17.927Z,1018.56
2018-09-19T02:02:17.924Z,1018.51
2018-09-19T02:03:18.089Z,1018.56
2018-09-19T02:04:17.907Z,1018.55
2018-09-19T02:05:18.232Z,1018.53
2018-09-19T02:06:18.075Z,1018.51
2018-09-19T02:07:17.881Z,1018.55
2018-09-19T02:08:17.993Z,1018.48
2018-09-19T02:09:17.843Z,1018.47
2018-09-19T02:10:18.070Z,1018.47
2018-09-19T02:11:17.929Z,1018.48
2018-09-19T02:12:18.053Z,1018.48
2018-09-19T02:13:17.884Z,1018.48
2018-09-19T02:14:18.165Z,1018.48
2018-09-19T02:15:17.922Z,1018.45
2018-09-19T02:16:18.151Z,1018.48
2018-09-19T02:17:18.214Z,1018.46
2018-09-19T02:18:18.020Z,1018.48
2018-09-19T02:19:18.140Z,1018.46
2018-09-19T02:20:17.904Z,1018.54
2018-09-19T02:21:18.024Z,1018.49
2018-09-19T02:22:18.320Z,1018.5
2018-09-19T02:23:18.296Z,1018.59
2018-09-19T02:24:17.891Z,1018.6
2018-09-19T02:25:18.014Z,1018.57
2018-09-19T02:26:17.862Z,1018.54
2018-09-19T02:27:18.144Z,1018.59
2018-09-19T02:28:18.032Z,1018.64
2018-09-19T02:29:18.013Z,1018.64
2018-09-19T02:30:18.150Z,1018.68
2018-09-19T02:31:17.852Z,1018.71
2018-09-19T02:32:18.161Z,1018.64
2018-09-19T02:33:17.853Z,1018.7
2018-09-19T02:34:18.058Z,1018.65
2018-09-19T02:35:17.851Z,1018.64
2018-09-19T02:36:18.022Z,1018.57
2018-09-19T02:37:17.948Z,1018.59
2018-09-19T02:38:17.934Z,1018.58
2018-09-19T02:39:17.787Z,1018.62
2018-09-19T02:40:18.223Z,1018.6
2018-09-19T02:41:18.416Z,1018.58
2018-09-19T02:42:17.962Z,1018.69
2018-09-19T02:43:18.075Z,1018.64
2018-09-19T02:44:17.940Z,1018.62
2018-09-19T02:45:17.881Z,1018.57
2018-09-19T02:46:17.994Z,1018.64
2018-09-19T02:47:18.189Z,1018.69
2018-09-19T02:48:18.039Z,1018.67
2018-09-19T02:49:18.041Z,1018.74
2018-09-19T02:50:17.998Z,1018.75
2018-09-19T02:51:18.067Z,1018.72
2018-09-19T02:52:17.957Z,1018.67
2018-09-19T02:53:17.829Z,1018.69
2018-09-19T02:54:17.812Z,1018.66
2018-09-19T02:55:18.251Z,1018.7
2018-09-19T02:56:18.295Z,1018.7
2018-09-19T02:57:18.050Z,1018.73
2018-09-19T02:58:17.817Z,1018.71
2018-09-19T02:59:18.394Z,1018.75
2018-09-19T03:00:18.135Z,1018.76
2018-09-19T03:01:18.053Z,1018.76
2018-09-19T03:02:18.130Z,1018.81
2018-09-19T03:03:17.915Z,1018.78
2018-09-19T03:04:18.216Z,1018.87
2018-09-19T03:05:18.153Z,1018.84
2018-09-19T03:06:17.984Z,1018.84
2018-09-19T03:07:18.131Z,1018.83
2018-09-19T03:08:18.018Z,1018.78
2018-09-19T03:09:18.055Z,1018.78
2018-09-19T03:10:18.288Z,1018.79
2018-09-19T03:11:17.990Z,1018.8
2018-09-19T03:12:17.914Z,1018.8
2018-09-19T03:13:17.850Z,1018.83
2018-09-19T03:14:18.083Z,1018.87
2018-09-19T03:15:18.329Z,1018.85
2018-09-19T03:16:18.072Z,1018.87
2018-09-19T03:17:18.515Z,1018.84
2018-09-19T03:18:17.939Z,1018.87
2018-09-19T03:19:18.349Z,1018.8
2018-09-19T03:20:18.425Z,1018.85
2018-09-19T03:21:18.018Z,1018.85
2018-09-19T03:22:18.100Z,1018.84
2018-09-19T03:23:18.050Z,1018.85
2018-09-19T03:24:18.050Z,1018.83
2018-09-19T03:25:18.025Z,1018.85
2018-09-19T03:26:17.814Z,1018.88
2018-09-19T03:27:17.998Z,1018.89
2018-09-19T03:28:18.020Z,1018.89
2018-09-19T03:29:17.868Z,1018.89
2018-09-19T03:30:17.920Z,1018.92
2018-09-19T03:31:18.033Z,1018.9
2018-09-19T03:32:18.123Z,1018.89
2018-09-19T03:33:18.339Z,1018.86
2018-09-19T03:34:18.117Z,1018.9
2018-09-19T03:35:18.059Z,1018.86
2018-09-19T03:36:18.026Z,1018.87
2018-09-19T03:37:17.858Z,1018.87
2018-09-19T03:38:17.814Z,1018.85
2018-09-19T03:39:17.849Z,1018.84
2018-09-19T03:40:17.933Z,1018.89
2018-09-19T03:41:17.993Z,1018.9
2018-09-19T03:42:17.820Z,1018.86
2018-09-19T03:43:17.931Z,1018.96
2018-09-19T03:44:17.991Z,1018.92
2018-09-19T03:45:18.030Z,1018.92
2018-09-19T03:46:17.832Z,1018.95
2018-09-19T03:47:18.035Z,1018.92
2018-09-19T03:48:18.082Z,1018.93
2018-09-19T03:49:18.039Z,1018.93
2018-09-19T03:50:17.982Z,1018.94
2018-09-19T03:51:17.949Z,1018.89
2018-09-19T03:52:18.172Z,1018.9
2018-09-19T03:53:17.974Z,1018.94
2018-09-19T03:54:17.868Z,1018.92
2018-09-19T03:55:17.930Z,1018.96
2018-09-19T03:56:18.235Z,1018.98
2018-09-19T03:57:17.977Z,1018.97
2018-09-19T03:58:18.071Z,1018.93
2018-09-19T03:59:17.792Z,1018.99
2018-09-19T04:00:18.018Z,1018.94
2018-09-19T04:01:17.766Z,1018.97
2018-09-19T04:02:17.940Z,1018.99
2018-09-19T04:03:17.872Z,1019
2018-09-19T04:04:17.813Z,1018.99
2018-09-19T04:05:18.022Z,1018.96
2018-09-19T04:06:17.937Z,1019.05
2018-09-19T04:07:18.400Z,1019.03
2018-09-19T04:08:18.034Z,1019.05
2018-09-19T04:09:17.960Z,1019.01
2018-09-19T04:10:18.187Z,1019.04
2018-09-19T04:11:17.899Z,1019.05
2018-09-19T04:12:18.574Z,1019.09
2018-09-19T04:13:18.302Z,1019.08
2018-09-19T04:14:17.756Z,1019.09
2018-09-19T04:15:18.012Z,1019.07
2018-09-19T04:16:18.322Z,1019.09
2018-09-19T04:17:18.232Z,1019.02
2018-09-19T04:18:17.826Z,1019.08
2018-09-19T04:19:18.269Z,1019.09
2018-09-19T04:20:18.059Z,1019.08
2018-09-19T04:21:18.013Z,1019.04
2018-09-19T04:22:18.134Z,1019.03
2018-09-19T04:23:18.112Z,1018.99
2018-09-19T04:24:17.951Z,1019.07
2018-09-19T04:25:17.875Z,1019.01
2018-09-19T04:26:18.018Z,1019.06
2018-09-19T04:27:17.971Z,1019.09
2018-09-19T04:28:17.941Z,1019.1
2018-09-19T04:29:17.806Z,1019.08
2018-09-19T04:30:18.311Z,1019.1
2018-09-19T04:31:18.103Z,1019.13
2018-09-19T04:32:17.979Z,1019.11
2018-09-19T04:33:17.880Z,1019.09
2018-09-19T04:34:18.036Z,1019.1
2018-09-19T04:35:17.802Z,1019.1
2018-09-19T04:36:18.076Z,1019.08
2018-09-19T04:37:17.976Z,1019.14
2018-09-19T04:38:17.875Z,1019.13
2018-09-19T04:39:17.996Z,1019.15
2018-09-19T04:40:17.944Z,1019.17
2018-09-19T04:41:18.084Z,1019.18
2018-09-19T04:42:17.957Z,1019.18
2018-09-19T04:43:17.992Z,1019.18
2018-09-19T04:44:18.059Z,1019.17
2018-09-19T04:45:18.282Z,1019.19
2018-09-19T04:46:18.022Z,1019.22
2018-09-19T04:47:17.798Z,1019.2
2018-09-19T04:48:18.159Z,1019.19
2018-09-19T04:49:18.154Z,1019.22
2018-09-19T04:50:17.992Z,1019.23
2018-09-19T04:51:18.477Z,1019.27
2018-09-19T04:52:17.980Z,1019.31
2018-09-19T04:53:18.084Z,1019.27
2018-09-19T04:54:18.062Z,1019.29
2018-09-19T04:55:18.372Z,1019.34
2018-09-19T04:56:18.056Z,1019.32
2018-09-19T04:57:17.859Z,1019.4
2018-09-19T04:58:18.067Z,1019.38
2018-09-19T04:59:17.957Z,1019.39
2018-09-19T05:00:17.904Z,1019.41
2018-09-19T05:01:18.089Z,1019.38
2018-09-19T05:02:18.060Z,1019.4
2018-09-19T05:03:18.140Z,1019.36
2018-09-19T05:04:18.219Z,1019.38
2018-09-19T05:05:18.077Z,1019.42
2018-09-19T05:06:18.202Z,1019.43
2018-09-19T05:07:18.387Z,1019.43
2018-09-19T05:08:18.314Z,1019.47
2018-09-19T05:09:17.821Z,1019.47
2018-09-19T05:10:17.909Z,1019.46
2018-09-19T05:11:18.488Z,1019.47
2018-09-19T05:12:18.099Z,1019.53
2018-09-19T05:13:17.957Z,1019.5
2018-09-19T05:14:17.849Z,1019.54
2018-09-19T05:15:17.833Z,1019.55
2018-09-19T05:16:17.983Z,1019.53
2018-09-19T05:17:18.154Z,1019.56
2018-09-19T05:18:17.942Z,1019.55
2018-09-19T05:19:17.788Z,1019.62
2018-09-19T05:20:17.861Z,1019.62
2018-09-19T05:21:17.869Z,1019.64
2018-09-19T05:22:17.939Z,1019.68
2018-09-19T05:23:18.383Z,1019.71
2018-09-19T05:24:17.934Z,1019.77
2018-09-19T05:25:17.955Z,1019.77
2018-09-19T05:26:18.005Z,1019.78
2018-09-19T05:27:17.801Z,1019.76
2018-09-19T05:28:17.951Z,1019.79
2018-09-19T05:29:17.970Z,1019.8
2018-09-19T05:30:17.805Z,1019.81
2018-09-19T05:31:18.007Z,1019.91
2018-09-19T05:32:17.825Z,1019.86
2018-09-19T05:33:17.938Z,1019.96
2018-09-19T05:34:17.888Z,1020
2018-09-19T05:35:17.936Z,1020.01
2018-09-19T05:36:17.846Z,1020
2018-09-19T05:37:18.209Z,1020.03
2018-09-19T05:38:18.131Z,1020.05
2018-09-19T05:39:18.147Z,1020.13
2018-09-19T05:40:17.877Z,1020.11
2018-09-19T05:41:18.259Z,1020.15
2018-09-19T05:42:18.183Z,1020.16
2018-09-19T05:43:17.964Z,1020.16
2018-09-19T05:44:18.118Z,1020.16
2018-09-19T05:45:18.656Z,1020.09
2018-09-19T05:46:18.174Z,1020.11
2018-09-19T05:47:18.502Z,1020.02
2018-09-19T05:48:17.904Z,1020.03
2018-09-19T05:49:18.000Z,1020.02
2018-09-19T05:50:17.911Z,1019.96
2018-09-19T05:51:18.082Z,1019.96
2018-09-19T05:52:17.873Z,1020.01
2018-09-19T05:53:18.087Z,1020.03
2018-09-19T05:54:18.003Z,1020.02
2018-09-19T05:55:18.111Z,1020.06
2018-09-19T05:56:17.971Z,1020.04
2018-09-19T05:57:17.851Z,1020.1
2018-09-19T05:58:18.077Z,1020.11
2018-09-19T05:59:17.948Z,1020.12
2018-09-19T06:00:18.440Z,1020.17
2018-09-19T06:01:18.045Z,1020.15
2018-09-19T06:02:17.890Z,1020.16
2018-09-19T06:03:18.061Z,1020.24
2018-09-19T06:04:17.921Z,1020.21
2018-09-19T06:05:18.003Z,1020.17
2018-09-19T06:06:17.785Z,1020.21
2018-09-19T06:07:17.963Z,1020.17
2018-09-19T06:08:18.122Z,1020.13
2018-09-19T06:09:17.932Z,1020.16
2018-09-19T06:10:18.331Z,1020.12
2018-09-19T06:11:17.937Z,1020.12
2018-09-19T06:12:18.445Z,1020.13
2018-09-19T06:13:18.093Z,1020.1
2018-09-19T06:14:18.103Z,1020.06
2018-09-19T06:15:17.898Z,1020.04
2018-09-19T06:16:17.917Z,1020.06
2018-09-19T06:17:17.987Z,1020.06
2018-09-19T06:18:17.850Z,1020.03
2018-09-19T06:19:17.773Z,1020.04
2018-09-19T06:20:18.319Z,1020.09
2018-09-19T06:21:17.805Z,1020.12
2018-09-19T06:22:17.873Z,1020.14
2018-09-19T06:23:17.918Z,1020.17
2018-09-19T06:24:17.809Z,1020.14
2018-09-19T06:25:17.939Z,1020.2
2018-09-19T06:26:18.056Z,1020.17
2018-09-19T06:27:17.728Z,1020.19
2018-09-19T06:28:18.062Z,1020.19
2018-09-19T06:29:18.112Z,1020.21
2018-09-19T06:30:18.170Z,1020.2
2018-09-19T06:31:17.728Z,1020.2
2018-09-19T06:32:18.005Z,1020.2
2018-09-19T06:33:18.193Z,1020.24
2018-09-19T06:34:17.925Z,1020.2
2018-09-19T06:35:17.912Z,1020.23
2018-09-19T06:36:17.776Z,1020.23
2018-09-19T06:37:18.130Z,1020.24
2018-09-19T06:38:18.018Z,1020.26
2018-09-19T06:39:17.903Z,1020.3
2018-09-19T06:40:18.143Z,1020.26
2018-09-19T06:41:17.807Z,1020.25
2018-09-19T06:42:17.971Z,1020.3
2018-09-19T06:43:17.959Z,1020.27
2018-09-19T06:44:17.865Z,1020.2
2018-09-19T06:45:17.895Z,1020.26
2018-09-19T06:46:17.745Z,1020.22
2018-09-19T06:47:18.448Z,1020.23
2018-09-19T06:48:18.665Z,1020.26
2018-09-19T06:49:17.885Z,1020.27
2018-09-19T06:50:18.089Z,1020.32
2018-09-19T06:51:17.860Z,1020.3
2018-09-19T06:52:18.087Z,1020.37
2018-09-19T06:53:17.832Z,1020.37
2018-09-19T06:54:17.926Z,1020.36
2018-09-19T06:55:17.773Z,1020.34
2018-09-19T06:56:17.809Z,1020.32
2018-09-19T06:57:17.868Z,1020.38
2018-09-19T06:58:17.848Z,1020.29
2018-09-19T06:59:17.966Z,1020.32
2018-09-19T07:00:18.066Z,1020.33
2018-09-19T07:01:17.993Z,1020.32
2018-09-19T07:02:17.876Z,1020.34
2018-09-19T07:03:18.297Z,1020.34
2018-09-19T07:04:17.928Z,1020.34
2018-09-19T07:05:18.021Z,1020.35
2018-09-19T07:06:18.119Z,1020.33
2018-09-19T07:07:18.128Z,1020.33
2018-09-19T07:08:17.843Z,1020.33
2018-09-19T07:09:18.060Z,1020.37
2018-09-19T07:10:18.299Z,1020.38
2018-09-19T07:11:17.893Z,1020.36
2018-09-19T07:12:17.725Z,1020.37
2018-09-19T07:13:17.977Z,1020.38
2018-09-19T07:14:17.787Z,1020.34
2018-09-19T07:15:17.861Z,1020.35
2018-09-19T07:16:19.097Z,1020.36
2018-09-19T07:17:17.747Z,1020.34
2018-09-19T07:18:17.822Z,1020.38
2018-09-19T07:19:18.042Z,1020.34
2018-09-19T07:20:18.023Z,1020.35
2018-09-19T07:21:17.942Z,1020.31
2018-09-19T07:22:17.902Z,1020.33
2018-09-19T07:23:17.885Z,1020.34
2018-09-19T07:24:18.262Z,1020.3
2018-09-19T07:25:18.593Z,1020.36
2018-09-19T07:26:18.041Z,1020.36
2018-09-19T07:27:17.873Z,1020.32
2018-09-19T07:28:18.206Z,1020.36
2018-09-19T07:29:18.177Z,1020.35
2018-09-19T07:30:18.069Z,1020.3
2018-09-19T07:31:18.136Z,1020.33
2018-09-19T07:32:17.735Z,1020.33
2018-09-19T07:33:18.023Z,1020.31
2018-09-19T07:34:17.848Z,1020.3
2018-09-19T07:35:17.920Z,1020.27
2018-09-19T07:36:18.166Z,1020.27
2018-09-19T07:37:18.257Z,1020.3
2018-09-19T07:38:18.131Z,1020.24
2018-09-19T07:39:18.296Z,1020.24
2018-09-19T07:40:17.897Z,1020.23
2018-09-19T07:41:17.937Z,1020.28
2018-09-19T07:42:17.811Z,1020.22
2018-09-19T07:43:18.074Z,1020.22
2018-09-19T07:44:17.858Z,1020.28
2018-09-19T07:45:18.085Z,1020.31
2018-09-19T07:46:18.012Z,1020.34
2018-09-19T07:47:17.745Z,1020.34
2018-09-19T07:48:17.967Z,1020.33
2018-09-19T07:49:18.024Z,1020.4
2018-09-19T07:50:17.994Z,1020.34
2018-09-19T07:51:17.674Z,1020.4
2018-09-19T07:52:17.774Z,1020.39
2018-09-19T07:53:18.076Z,1020.4
2018-09-19T07:54:17.706Z,1020.44
2018-09-19T07:55:18.144Z,1020.43
2018-09-19T07:56:17.944Z,1020.47
2018-09-19T07:57:17.940Z,1020.49
2018-09-19T07:58:17.828Z,1020.5
2018-09-19T07:59:17.925Z,1020.49
2018-09-19T08:00:17.746Z,1020.45
2018-09-19T08:01:18.604Z,1020.47
2018-09-19T08:02:17.939Z,1020.49
2018-09-19T08:03:17.814Z,1020.46
2018-09-19T08:04:17.818Z,1020.42
2018-09-19T08:05:18.355Z,1020.44
2018-09-19T08:06:18.039Z,1020.44
2018-09-19T08:07:17.799Z,1020.42
2018-09-19T08:08:17.886Z,1020.41
2018-09-19T08:09:18.388Z,1020.39
2018-09-19T08:10:17.847Z,1020.4
2018-09-19T08:11:17.830Z,1020.41
2018-09-19T08:12:17.983Z,1020.4
2018-09-19T08:13:17.719Z,1020.47
2018-09-19T08:14:18.339Z,1020.43
2018-09-19T08:15:17.845Z,1020.47
2018-09-19T08:16:18.005Z,1020.49
2018-09-19T08:17:17.855Z,1020.52
2018-09-19T08:18:17.770Z,1020.57
2018-09-19T08:19:17.768Z,1020.6
2018-09-19T08:20:18.391Z,1020.64
2018-09-19T08:21:17.953Z,1020.66
2018-09-19T08:22:17.924Z,1020.66
2018-09-19T08:23:17.923Z,1020.64
2018-09-19T08:24:17.660Z,1020.75
2018-09-19T08:25:17.675Z,1020.75
2018-09-19T08:26:18.033Z,1020.75
2018-09-19T08:27:17.764Z,1020.71
2018-09-19T08:28:17.967Z,1020.75
2018-09-19T08:29:17.811Z,1020.77
2018-09-19T08:30:17.696Z,1020.75
2018-09-19T08:31:17.873Z,1020.73
2018-09-19T08:32:17.979Z,1020.75
2018-09-19T08:33:17.808Z,1020.74
2018-09-19T08:34:17.982Z,1020.72
2018-09-19T08:35:17.880Z,1020.77
2018-09-19T08:36:17.854Z,1020.71
2018-09-19T08:37:17.812Z,1020.69
2018-09-19T08:38:17.621Z,1020.67
2018-09-19T08:39:17.976Z,1020.74
2018-09-19T08:40:17.709Z,1020.74
2018-09-19T08:41:17.787Z,1020.7
2018-09-19T08:42:17.895Z,1020.75
2018-09-19T08:43:17.912Z,1020.77
2018-09-19T08:44:17.931Z,1020.71
2018-09-19T08:45:17.674Z,1020.73
2018-09-19T08:46:17.845Z,1020.72
2018-09-19T08:47:17.783Z,1020.7
2018-09-19T08:48:17.992Z,1020.72
2018-09-19T08:49:17.765Z,1020.68
2018-09-19T08:50:17.966Z,1020.72
2018-09-19T08:51:18.005Z,1020.72
2018-09-19T08:52:17.843Z,1020.76
2018-09-19T08:53:17.861Z,1020.7
2018-09-19T08:54:17.734Z,1020.73
2018-09-19T08:55:17.850Z,1020.75
2018-09-19T08:56:17.739Z,1020.69
2018-09-19T08:57:17.786Z,1020.71
2018-09-19T08:58:17.812Z,1020.74
2018-09-19T08:59:17.781Z,1020.73
2018-09-19T09:00:18.127Z,1020.76
2018-09-19T09:01:18.039Z,1020.78
2018-09-19T09:02:18.023Z,1020.79
2018-09-19T09:03:17.734Z,1020.83
2018-09-19T09:04:18.024Z,1020.85
2018-09-19T09:05:18.192Z,1020.87
2018-09-19T09:06:17.994Z,1020.78
2018-09-19T09:07:17.747Z,1020.79
2018-09-19T09:08:17.988Z,1020.81
2018-09-19T09:09:17.810Z,1020.79
2018-09-19T09:10:18.017Z,1020.85
2018-09-19T09:11:17.702Z,1020.81
2018-09-19T09:12:18.490Z,1020.8
2018-09-19T09:13:17.838Z,1020.79
2018-09-19T09:14:17.649Z,1020.76
2018-09-19T09:15:17.762Z,1020.75
2018-09-19T09:16:18.562Z,1020.71
2018-09-19T09:17:18.121Z,1020.75
2018-09-19T09:18:18.097Z,1020.73
2018-09-19T09:19:17.825Z,1020.74
2018-09-19T09:20:17.766Z,1020.73
2018-09-19T09:21:17.900Z,1020.74
2018-09-19T09:22:17.867Z,1020.77
2018-09-19T09:23:17.918Z,1020.75
2018-09-19T09:24:17.975Z,1020.7
2018-09-19T09:25:17.645Z,1020.74
2018-09-19T09:26:17.911Z,1020.74
2018-09-19T09:27:18.021Z,1020.73
2018-09-19T09:28:17.717Z,1020.77
2018-09-19T09:29:17.645Z,1020.76
2018-09-19T09:30:17.735Z,1020.76
2018-09-19T09:31:18.541Z,1020.73
2018-09-19T09:33:17.988Z,1020.78
2018-09-19T09:34:18.236Z,1020.76
2018-09-19T09:35:17.908Z,1020.75
2018-09-19T09:36:17.872Z,1020.79
2018-09-19T09:37:18.018Z,1020.78
2018-09-19T09:38:17.746Z,1020.7
2018-09-19T09:39:18.205Z,1020.73
2018-09-19T09:40:18.084Z,1020.73
2018-09-19T09:41:17.717Z,1020.75
2018-09-19T09:42:19.031Z,1020.72
2018-09-19T09:43:18.206Z,1020.75
2018-09-19T09:44:17.957Z,1020.75
2018-09-19T09:45:17.992Z,1020.72
2018-09-19T09:46:17.812Z,1020.69
2018-09-19T09:47:17.802Z,1020.7
2018-09-19T09:48:17.608Z,1020.66
2018-09-19T09:49:17.881Z,1020.67
2018-09-19T09:50:17.954Z,1020.66
2018-09-19T09:51:18.013Z,1020.61
2018-09-19T09:52:17.771Z,1020.6
2018-09-19T09:53:18.145Z,1020.59
2018-09-19T09:54:17.755Z,1020.56
2018-09-19T09:55:18.223Z,1020.52
2018-09-19T09:56:17.763Z,1020.54
2018-09-19T09:57:17.671Z,1020.53
2018-09-19T09:58:17.777Z,1020.46
2018-09-19T09:59:17.865Z,1020.48
2018-09-19T10:00:17.893Z,1020.49
2018-09-19T10:01:17.704Z,1020.46
2018-09-19T10:02:17.797Z,1020.53
2018-09-19T10:03:17.836Z,1020.53
2018-09-19T10:04:17.599Z,1020.52
2018-09-19T10:05:17.992Z,1020.48
2018-09-19T10:06:17.854Z,1020.53
2018-09-19T10:07:18.024Z,1020.52
2018-09-19T10:08:17.826Z,1020.52
2018-09-19T10:09:18.066Z,1020.47
2018-09-19T10:10:17.653Z,1020.45
2018-09-19T10:11:17.687Z,1020.49
2018-09-19T10:12:17.809Z,1020.45
2018-09-19T10:13:18.668Z,1020.48
2018-09-19T10:14:17.982Z,1020.48
2018-09-19T10:15:18.058Z,1020.46
2018-09-19T10:16:17.619Z,1020.45
2018-09-19T10:17:17.788Z,1020.48
2018-09-19T10:18:17.908Z,1020.44
2018-09-19T10:19:17.976Z,1020.44
2018-09-19T10:20:17.794Z,1020.41
2018-09-19T10:21:17.790Z,1020.41
2018-09-19T10:22:17.778Z,1020.4
2018-09-19T10:23:17.806Z,1020.36
2018-09-19T10:24:17.916Z,1020.42
2018-09-19T10:25:17.819Z,1020.36
2018-09-19T10:26:18.015Z,1020.3
2018-09-19T10:27:17.866Z,1020.3
2018-09-19T10:28:17.790Z,1020.3
2018-09-19T10:29:17.926Z,1020.31
2018-09-19T10:30:17.649Z,1020.3
2018-09-19T10:31:17.984Z,1020.25
2018-09-19T10:32:18.283Z,1020.28
2018-09-19T10:33:18.009Z,1020.27
2018-09-19T10:34:17.973Z,1020.29
2018-09-19T10:35:18.010Z,1020.28
2018-09-19T10:36:17.692Z,1020.3
2018-09-19T10:37:17.911Z,1020.26
2018-09-19T10:38:17.834Z,1020.24
2018-09-19T10:39:17.846Z,1020.25
2018-09-19T10:40:17.781Z,1020.23
2018-09-19T10:41:17.747Z,1020.21
2018-09-19T10:42:17.641Z,1020.2
2018-09-19T10:43:17.676Z,1020.18
2018-09-19T10:44:17.820Z,1020.21
2018-09-19T10:45:17.811Z,1020.19
2018-09-19T10:46:17.698Z,1020.19
2018-09-19T10:47:17.708Z,1020.2
2018-09-19T10:48:17.894Z,1020.17
2018-09-19T10:49:18.045Z,1020.18
2018-09-19T10:50:18.097Z,1020.18
2018-09-19T10:51:17.666Z,1020.12
2018-09-19T10:52:18.061Z,1020.17
2018-09-19T10:53:17.700Z,1020.15
2018-09-19T10:54:18.199Z,1020.14
2018-09-19T10:55:17.752Z,1020.17
2018-09-19T10:56:17.902Z,1020.14
2018-09-19T10:57:17.830Z,1020.12
2018-09-19T10:58:17.681Z,1020.15
2018-09-19T10:59:18.112Z,1020.13
2018-09-19T11:00:18.098Z,1020.13
2018-09-19T11:01:18.090Z,1020.13
2018-09-19T11:02:17.722Z,1020.13
2018-09-19T11:03:17.960Z,1020.11
2018-09-19T11:04:17.931Z,1020.12
2018-09-19T11:05:17.980Z,1020.16
2018-09-19T11:06:17.650Z,1020.17
2018-09-19T11:07:17.727Z,1020.1
2018-09-19T11:08:17.868Z,1020.13
2018-09-19T11:09:17.787Z,1020.13
2018-09-19T11:10:17.611Z,1020.2
2018-09-19T11:11:17.685Z,1020.18
2018-09-19T11:12:18.082Z,1020.17
2018-09-19T11:13:17.839Z,1020.16
2018-09-19T11:14:17.873Z,1020.21
2018-09-19T11:15:17.838Z,1020.19
2018-09-19T11:16:17.649Z,1020.23
2018-09-19T11:17:17.897Z,1020.16
2018-09-19T11:18:17.615Z,1020.23
2018-09-19T11:19:17.780Z,1020.16
2018-09-19T11:20:17.724Z,1020.12
2018-09-19T11:21:17.764Z,1020.15
2018-09-19T11:22:17.827Z,1020.14
2018-09-19T11:23:17.702Z,1020.17
2018-09-19T11:24:17.634Z,1020.15
2018-09-19T11:25:17.978Z,1020.17
2018-09-19T11:26:17.818Z,1020.18
2018-09-19T11:27:17.745Z,1020.14
2018-09-19T11:28:17.692Z,1020.15
2018-09-19T11:29:17.819Z,1020.14
2018-09-19T11:30:17.757Z,1020.15
2018-09-19T11:31:18.318Z,1020.12
2018-09-19T11:32:17.779Z,1020.1
2018-09-19T11:33:18.079Z,1020.11
2018-09-19T11:34:17.813Z,1020.03
2018-09-19T11:35:17.811Z,1020.03
2018-09-19T11:36:17.694Z,1020.06
2018-09-19T11:37:17.679Z,1020
2018-09-19T11:38:17.839Z,1019.97
2018-09-19T11:39:17.735Z,1020.03
2018-09-19T11:40:18.039Z,1019.99
2018-09-19T11:41:17.874Z,1019.94
2018-09-19T11:42:17.584Z,1019.97
2018-09-19T11:43:17.955Z,1019.97
2018-09-19T11:44:17.799Z,1019.98
2018-09-19T11:45:17.828Z,1020.01
2018-09-19T11:46:18.195Z,1019.97
2018-09-19T11:47:17.779Z,1019.97
2018-09-19T11:48:18.007Z,1019.97
2018-09-19T11:49:17.737Z,1019.92
2018-09-19T11:50:19.061Z,1019.91
2018-09-19T11:51:17.942Z,1019.87
2018-09-19T11:52:17.801Z,1019.84
2018-09-19T11:53:17.629Z,1019.84
2018-09-19T11:54:17.815Z,1019.81
2018-09-19T11:55:17.928Z,1019.85
2018-09-19T11:56:17.726Z,1019.83
2018-09-19T11:57:17.752Z,1019.78
2018-09-19T11:58:17.708Z,1019.77
2018-09-19T11:59:17.986Z,1019.75
2018-09-19T12:00:17.744Z,1019.77
2018-09-19T12:01:17.886Z,1019.73
2018-09-19T12:02:17.856Z,1019.72
2018-09-19T12:03:17.912Z,1019.72
2018-09-19T12:04:18.093Z,1019.72
2018-09-19T12:05:17.788Z,1019.73
2018-09-19T12:06:18.147Z,1019.7
2018-09-19T12:07:18.318Z,1019.7
2018-09-19T12:08:18.151Z,1019.64
2018-09-19T12:09:17.759Z,1019.65